Time;durP1;ratioP1;P1;durP2;ratioP2;P2;SDS_P1;SDS_P2;PMS_P1;PMS_P2;Temp;Humidity;BMP_temperature;BMP_pressure;BME280_temperature;BME280_humidity;BME280_pressure;Samples;Min_cycle;Max_cycle;Signal;HPM_P1;HPM_P2
2021/01/09 00:00:33;;;;;;;;;71.00;57.33;;;;;5.20;77.17;101117.28;4419959;32;12400;-74
2021/01/09 00:03:28;;;;;;;;;66.25;54.00;;;;;5.18;77.05;101109.34;4420832;32;8948;-73
2021/01/09 00:06:34;;;;;;;;;38.25;31.75;;;;;5.17;76.91;101124.16;4419993;32;12367;-74
2021/01/09 00:09:30;;;;;;;;;46.50;42.75;;;;;5.21;76.82;101128.00;4420822;32;12371;-74
2021/01/09 00:12:25;;;;;;;;;53.50;44.50;;;;;5.19;76.60;101130.16;4422178;32;12392;-73
2021/01/09 00:15:21;;;;;;;;;41.00;37.75;;;;;5.31;76.49;101129.84;4420866;32;12357;-73
2021/01/09 00:18:17;;;;;;;;;45.00;42.25;;;;;5.27;76.53;101123.25;4420496;32;12366;-73
2021/01/09 00:21:12;;;;;;;;;36.75;34.25;;;;;5.09;76.75;101122.03;4422418;32;12350;-73
2021/01/09 00:24:09;;;;;;;;;36.75;33.75;;;;;5.07;76.97;101120.69;4420972;32;13001;-72
2021/01/09 00:27:12;;;;;;;;;39.75;38.00;;;;;5.12;76.84;101115.13;4421227;32;12438;-73
2021/01/09 00:30:08;;;;;;;;;42.75;41.00;;;;;5.21;76.81;101107.94;4420482;32;12402;-73
2021/01/09 00:33:04;;;;;;;;;47.25;42.25;;;;;5.32;76.52;101103.22;4420752;32;12380;-73
2021/01/09 00:36:00;;;;;;;;;38.00;37.50;;;;;5.27;76.61;101107.63;4420717;32;12387;-73
2021/01/09 00:38:55;;;;;;;;;45.50;42.25;;;;;4.91;77.28;101103.50;4421675;32;12405;-73
2021/01/09 00:41:51;;;;;;;;;53.25;44.50;;;;;5.19;76.68;101097.28;4418787;32;12372;-73
2021/01/09 00:44:47;;;;;;;;;47.50;43.50;;;;;5.27;76.51;101096.66;4418754;32;12451;-73
2021/01/09 00:47:42;;;;;;;;;39.75;39.50;;;;;5.14;76.68;101083.63;4421425;32;12356;-73
2021/01/09 00:50:38;;;;;;;;;46.00;43.50;;;;;4.94;76.78;101081.00;4433838;32;12339;-73
2021/01/09 00:53:06;;;;;;;;;45.25;42.00;;;;;5.11;76.73;101078.69;4436685;32;12394;-73
2021/01/09 00:56:02;;;;;;;;;56.75;49.00;;;;;4.99;76.81;101067.25;4433903;32;12384;-73
2021/01/09 00:58:57;;;;;;;;;56.50;46.25;;;;;5.16;76.60;101055.91;4435316;32;13068;-73
2021/01/09 01:01:53;;;;;;;;;55.50;47.75;;;;;5.03;76.71;101051.88;4435299;32;12338;-73
2021/01/09 01:04:49;;;;;;;;;51.75;44.50;;;;;4.78;77.36;101058.34;4435129;32;13059;-73
2021/01/09 01:07:44;;;;;;;;;50.75;46.50;;;;;4.98;77.05;101060.97;4434992;32;12406;-73
2021/01/09 01:10:40;;;;;;;;;54.00;47.75;;;;;5.00;76.83;101047.78;4435326;32;13148;-72
2021/01/09 01:13:35;;;;;;;;;50.00;43.75;;;;;4.83;77.30;101039.16;4435027;32;13078;-74
2021/01/09 01:16:31;;;;;;;;;52.00;44.50;;;;;4.96;76.95;101030.25;4435673;32;12397;-72
2021/01/09 01:19:26;;;;;;;;;46.00;43.50;;;;;4.86;77.43;101026.78;4433365;32;12340;-73
2021/01/09 01:22:22;;;;;;;;;61.00;48.00;;;;;4.89;77.03;101021.53;4434932;32;12354;-73
2021/01/09 01:25:17;;;;;;;;;48.25;43.75;;;;;4.86;77.42;101013.91;4423167;32;12352;-73
2021/01/09 01:28:13;;;;;;;;;36.50;36.25;;;;;4.79;77.35;101015.31;4422114;32;12349;-73
2021/01/09 01:31:09;;;;;;;;;42.75;38.00;;;;;4.81;77.05;101000.22;4432930;32;12406;-73
2021/01/09 01:34:05;;;;;;;;;41.50;39.75;;;;;4.51;78.00;101000.41;4434139;32;12587;-73
2021/01/09 01:37:00;;;;;;;;;47.75;44.75;;;;;4.66;77.66;100998.41;4426920;32;12453;-73
2021/01/09 01:39:56;;;;;;;;;45.00;42.33;;;;;4.40;78.59;100991.44;4418323;32;12434;-73
2021/01/09 01:42:52;;;;;;;;;62.67;54.33;;;;;4.52;78.60;100996.56;4419685;32;12353;-73
2021/01/09 01:45:48;;;;;;;;;50.33;45.33;;;;;4.61;78.30;101000.38;4419409;32;8961;-73
2021/01/09 01:48:44;;;;;;;;;66.00;53.33;;;;;4.32;78.64;100998.31;4419094;32;8944;-73
2021/01/09 01:51:42;;;;;;;;;62.67;50.00;;;;;4.45;78.91;100994.16;4418092;32;8914;-73
2021/01/09 01:54:38;;;;;;;;;75.33;58.33;;;;;4.60;78.50;100985.84;4420290;32;8903;-74
2021/01/09 01:57:36;;;;;;;;;68.67;54.00;;;;;4.55;78.78;100999.56;4419359;32;8963;-73
2021/01/09 02:00:31;;;;;;;;;71.33;58.67;;;;;4.61;78.20;100995.72;4417722;32;8962;-73
2021/01/09 02:03:27;;;;;;;;;75.67;58.33;;;;;4.57;78.55;100996.53;4420812;32;9535;-73
2021/01/09 02:06:25;;;;;;;;;68.33;56.67;;;;;4.57;78.59;100982.84;4419184;32;8937;-73
2021/01/09 02:09:16;;;;;;;;;70.67;57.67;;;;;4.66;78.22;100975.66;4419907;32;8897;-73
2021/01/09 02:12:29;;;;;;;;;68.67;58.00;;;;;4.60;78.27;100974.06;4418664;32;8902;-73
2021/01/09 02:14:59;;;;;;;;;63.33;50.33;;;;;4.54;78.69;100973.28;4420059;32;8909;-73
2021/01/09 02:17:55;;;;;;;;;54.00;49.00;;;;;4.71;78.12;100975.63;4419993;32;8932;-73
2021/01/09 02:21:03;;;;;;;;;66.67;53.33;;;;;4.66;78.14;100970.19;4419414;32;8891;-73
2021/01/09 02:23:59;;;;;;;;;65.00;52.33;;;;;4.55;78.58;100963.16;4419888;32;8948;-73
2021/01/09 02:26:55;;;;;;;;;57.67;49.33;;;;;4.53;78.63;100970.84;4419763;32;8891;-73
2021/01/09 02:30:06;;;;;;;;;50.25;45.50;;;;;4.46;78.91;100971.16;4419554;32;8899;-73
2021/01/09 02:33:05;;;;;;;;;56.00;48.33;;;;;4.17;79.78;100958.16;4420264;32;12349;-73
2021/01/09 02:36:03;;;;;;;;;57.67;48.33;;;;;4.62;78.61;100964.47;4418133;32;12372;-73
2021/01/09 02:38:58;;;;;;;;;59.50;48.25;;;;;4.49;78.98;100959.63;4418871;32;8949;-73
2021/01/09 02:41:55;;;;;;;;;54.00;46.67;;;;;4.39;79.05;100976.13;4419237;32;12345;-74
2021/01/09 02:44:52;;;;;;;;;55.75;48.00;;;;;4.31;79.40;100976.72;4433480;32;12340;-73
2021/01/09 02:47:47;;;;;;;;;49.00;44.33;;;;;4.39;79.18;100971.47;4434514;32;12384;-73
2021/01/09 02:50:43;;;;;;;;;45.00;42.75;;;;;4.32;79.37;100968.22;4435444;32;12354;-73
2021/01/09 02:53:38;;;;;;;;;49.50;44.00;;;;;4.32;79.31;100970.13;4435832;32;12333;-73
2021/01/09 02:56:34;;;;;;;;;39.67;36.33;;;;;4.50;78.88;100976.88;4428123;32;12354;-73
2021/01/09 02:59:29;;;;;;;;;62.33;50.00;;;;;4.44;78.93;100976.88;4417288;32;12367;-73
2021/01/09 03:02:25;;;;;;;;;63.67;51.33;;;;;4.76;78.30;100974.78;4418959;32;8987;-73
2021/01/09 03:05:21;;;;;;;;;65.00;53.33;;;;;4.59;78.36;100970.50;4419360;32;8910;-73
2021/01/09 03:08:16;;;;;;;;;71.67;57.67;;;;;4.67;78.56;100974.56;4419404;32;8915;-73
2021/01/09 03:11:12;;;;;;;;;69.33;56.00;;;;;4.60;78.39;100969.41;4419374;32;8987;-73
2021/01/09 03:14:07;;;;;;;;;72.67;56.67;;;;;4.46;78.59;100988.41;4422840;32;8945;-74
2021/01/09 03:17:03;;;;;;;;;62.33;50.67;;;;;4.54;78.09;100980.69;4422949;32;9550;-73
2021/01/09 03:19:58;;;;;;;;;73.33;54.00;;;;;4.59;78.04;100975.97;4421387;32;8906;-73
2021/01/09 03:22:54;;;;;;;;;62.33;52.67;;;;;4.65;77.86;100988.53;4422156;32;8976;-73
2021/01/09 03:25:49;;;;;;;;;49.50;44.25;;;;;4.66;77.90;100994.84;4422716;32;8894;-73
2021/01/09 03:28:45;;;;;;;;;43.50;40.25;;;;;4.44;78.29;101001.53;4429123;32;13152;-73
2021/01/09 03:31:41;;;;;;;;;47.00;43.33;;;;;4.38;78.24;100991.72;4421329;32;12382;-73
2021/01/09 03:34:09;;;;;;;;;54.00;44.25;;;;;4.45;78.15;100999.66;4422677;32;12343;-73
2021/01/09 03:37:04;;;;;;;;;58.33;47.00;;;;;4.48;78.01;100993.59;4420927;32;12338;-73
2021/01/09 03:40:00;;;;;;;;;56.33;45.00;;;;;4.44;77.97;100987.84;4421351;32;9554;-73
2021/01/09 03:42:55;;;;;;;;;52.00;45.67;;;;;4.55;77.59;100974.91;4422474;32;12449;-73
2021/01/09 03:45:40;;;;;;;;;55.67;44.67;;;;;4.27;78.14;100967.41;4420300;32;12432;-73
2021/01/09 03:48:35;;;;;;;;;55.00;47.00;;;;;4.42;77.86;100981.03;4421610;32;12413;-73
2021/01/09 03:51:31;;;;;;;;;61.33;50.00;;;;;4.31;78.45;100979.44;4421825;32;12545;-73
2021/01/09 03:54:26;;;;;;;;;62.00;46.00;;;;;4.42;78.28;100970.06;4422101;32;8910;-73
2021/01/09 03:56:54;;;;;;;;;58.67;51.00;;;;;4.32;78.18;100973.69;4422756;32;12384;-73
2021/01/09 03:59:49;;;;;;;;;52.33;48.00;;;;;4.44;77.69;100973.34;4435889;32;12357;-73
2021/01/09 04:02:45;;;;;;;;;55.00;48.33;;;;;4.34;77.80;100965.19;4435896;32;9075;-72
2021/01/09 04:05:40;;;;;;;;;55.33;48.00;;;;;4.14;78.38;100953.25;4425323;32;12381;-73
2021/01/09 04:08:36;;;;;;;;;55.33;49.00;;;;;4.16;78.73;100962.00;4437017;32;9127;-73
2021/01/09 04:11:21;;;;;;;;;56.00;48.00;;;;;4.30;78.41;100964.12;4436555;32;8939;-73
2021/01/09 04:14:17;;;;;;;;;75.00;60.67;;;;;4.18;78.78;100953.50;4436054;32;8941;-73
2021/01/09 04:17:12;;;;;;;;;73.67;59.33;;;;;4.23;78.84;100955.41;4422087;32;8882;-73
2021/01/09 04:20:08;;;;;;;;;89.67;67.33;;;;;4.44;78.44;100949.50;4421861;32;8940;-72
2021/01/09 04:23:04;;;;;;;;;96.00;62.00;;;;;4.34;78.41;100951.50;4420130;32;8918;-73
2021/01/09 04:25:59;;;;;;;;;141.33;105.00;;;;;4.18;79.44;100958.97;4426924;32;8933;-73
2021/01/09 04:28:55;;;;;;;;;128.33;103.33;;;;;4.31;79.34;100961.09;4437153;32;9021;-73
2021/01/09 04:31:54;;;;;;;;;106.67;79.33;;;;;4.34;79.03;100962.44;4434937;32;8916;-73
2021/01/09 04:34:50;;;;;;;;;172.00;123.75;;;;;4.24;79.37;100963.31;4437502;32;8892;-74
2021/01/09 04:37:46;;;;;;;;;115.33;89.67;;;;;4.21;79.35;100965.78;4438047;32;8991;-73
2021/01/09 04:40:41;;;;;;;;;115.67;86.33;;;;;4.07;80.35;100974.62;4434859;32;8976;-72
2021/01/09 04:43:37;;;;;;;;;112.67;94.00;;;;;4.21;79.83;100969.34;4435523;32;8896;-73
2021/01/09 04:46:49;;;;;;;;;86.33;63.67;;;;;4.50;79.28;100963.16;4434614;32;8946;-73
2021/01/09 04:49:45;;;;;;;;;76.33;58.67;;;;;4.23;79.84;100958.13;4434586;32;9041;-72
2021/01/09 04:52:41;;;;;;;;;65.67;54.67;;;;;4.43;79.05;100958.81;4434785;32;8900;-73
2021/01/09 04:55:38;;;;;;;;;56.00;44.75;;;;;4.15;79.76;100943.94;4435245;32;8895;-73
2021/01/09 04:58:35;;;;;;;;;57.00;49.33;;;;;4.09;80.23;100939.59;4435153;32;12389;-73
2021/01/09 05:01:30;;;;;;;;;59.67;47.33;;;;;4.16;79.99;100940.09;4437795;32;8904;-73
2021/01/09 05:03:59;;;;;;;;;52.33;47.00;;;;;3.92;80.65;100952.81;4436636;32;12351;-72
2021/01/09 05:06:54;;;;;;;;;63.67;54.33;;;;;3.95;80.59;100954.16;4435913;32;12334;-72
2021/01/09 05:09:57;;;;;;;;;53.00;44.67;;;;;4.18;80.35;100962.53;4436160;32;8964;-72
2021/01/09 05:12:30;;;;;;;;;63.00;52.00;;;;;4.22;79.73;100970.16;4436127;32;13107;-73
2021/01/09 05:15:46;;;;;;;;;57.33;47.67;;;;;4.00;80.70;100987.81;4425808;32;12369;-74
2021/01/09 05:18:42;;;;;;;;;61.67;49.67;;;;;4.19;80.22;100993.47;4418471;32;9592;-73
2021/01/09 05:21:39;;;;;;;;;54.67;47.33;;;;;4.25;80.04;100997.81;4419840;32;12499;-73
2021/01/09 05:24:35;;;;;;;;;51.50;45.25;;;;;4.16;80.24;101004.97;4426582;32;12377;-73
2021/01/09 05:27:32;;;;;;;;;50.50;46.50;;;;;4.27;79.97;101008.47;4434564;32;12337;-73
2021/01/09 05:30:27;;;;;;;;;46.00;42.75;;;;;4.50;79.05;101015.22;4435392;32;12343;-73
2021/01/09 05:33:23;;;;;;;;;48.00;43.33;;;;;4.36;79.21;101017.75;4433865;32;12319;-73
2021/01/09 05:36:20;;;;;;;;;51.67;45.33;;;;;4.44;78.95;101019.87;4433305;32;12417;-73
2021/01/09 05:39:16;;;;;;;;;25.67;23.33;;;;;4.40;78.94;101025.12;4435729;32;12401;-73
2021/01/09 05:42:14;;;;;;;;;53.50;45.50;;;;;4.51;78.81;101034.09;4435707;32;12442;-73
2021/01/09 05:45:11;;;;;;;;;77.67;60.33;;;;;4.44;78.50;101023.44;4434650;32;12348;-72
2021/01/09 05:48:07;;;;;;;;;65.33;53.67;;;;;4.57;78.57;101021.19;4429580;32;8872;-73
2021/01/09 05:51:09;;;;;;;;;69.67;55.67;;;;;4.35;79.35;101029.81;4418870;32;8934;-72
2021/01/09 05:54:06;;;;;;;;;65.33;52.67;;;;;4.54;79.03;101030.81;4420750;32;8884;-73
2021/01/09 05:57:05;;;;;;;;;68.33;55.67;;;;;4.42;78.77;101022.09;4419024;32;8890;-74
2021/01/09 06:00:04;;;;;;;;;69.00;58.00;;;;;4.43;78.93;101042.91;4418132;32;8940;-73
2021/01/09 06:03:13;;;;;;;;;37.00;34.67;;;;;4.46;78.87;101047.84;4419746;32;8899;-74
2021/01/09 06:06:27;;;;;;;;;44.75;43.50;;;;;4.45;78.78;101063.44;4418862;32;12523;-73
2021/01/09 06:09:33;;;;;;;;;55.00;47.67;;;;;4.63;78.55;101070.22;4419506;32;12425;-73
2021/01/09 06:12:34;;;;;;;;;36.00;35.00;;;;;4.58;78.51;101062.00;4420287;32;12403;-73
2021/01/09 06:15:31;;;;;;;;;67.75;53.75;;;;;4.57;78.28;101067.78;4424473;32;12391;-73
2021/01/09 06:18:26;;;;;;;;;58.67;50.00;;;;;4.69;77.97;101065.53;4426095;32;12372;-73
2021/01/09 06:21:22;;;;;;;;;61.33;48.33;;;;;4.63;78.21;101085.81;4422929;32;12379;-72
2021/01/09 06:24:19;;;;;;;;;73.00;60.33;;;;;4.70;77.80;101100.03;4425045;32;12324;-73
2021/01/09 06:27:29;;;;;;;;;83.00;66.33;;;;;4.68;77.89;101099.50;4434849;32;8916;-72
2021/01/09 06:30:25;;;;;;;;;98.67;77.00;;;;;4.80;77.56;101097.25;4434201;32;9093;-72
2021/01/09 06:33:23;;;;;;;;;110.67;93.33;;;;;4.74;77.78;101090.13;4444103;32;9043;-72
2021/01/09 06:36:20;;;;;;;;;100.67;83.33;;;;;4.70;77.67;101102.78;4434767;32;8946;-72
2021/01/09 06:39:16;;;;;;;;;105.67;88.33;;;;;4.84;77.38;101101.06;4434796;32;8935;-74
2021/01/09 06:42:13;;;;;;;;;111.00;87.00;;;;;4.83;77.81;101091.22;4432524;32;8948;-73
2021/01/09 06:45:11;;;;;;;;;108.67;90.00;;;;;4.76;77.72;101087.97;4433832;32;8903;-73
2021/01/09 06:48:08;;;;;;;;;98.67;71.00;;;;;4.71;77.91;101086.06;4424226;32;8941;-72
2021/01/09 06:51:40;;;;;;;;;93.00;70.00;;;;;4.63;77.70;101094.03;4435371;32;8899;-71
2021/01/09 06:54:39;;;;;;;;;101.33;83.00;;;;;4.55;77.78;101089.97;4434216;32;8938;-73
2021/01/09 06:57:35;;;;;;;;;113.67;91.33;;;;;4.58;77.85;101085.84;3961618;32;15132067;-73
2021/01/09 07:00:31;;;;;;;;;119.67;103.33;;;;;4.46;78.46;101097.94;4434824;32;9039;-77
2021/01/09 07:03:43;;;;;;;;;112.33;96.33;;;;;4.69;77.92;101101.16;4451912;32;8910;-72
2021/01/09 07:07:00;;;;;;;;;109.33;94.00;;;;;4.48;78.53;101103.16;4428194;32;8887;-71
2021/01/09 07:10:00;;;;;;;;;106.67;91.67;;;;;4.62;77.96;101101.44;4418219;32;9010;-70
2021/01/09 07:12:28;;;;;;;;;134.33;104.33;;;;;4.60;77.76;101103.66;4418850;32;8901;-70
2021/01/09 07:15:26;;;;;;;;;107.00;75.25;;;;;4.49;77.75;101082.06;4418609;32;8910;-70
2021/01/09 07:18:22;;;;;;;;;147.75;113.50;;;;;4.38;77.79;101084.84;4430503;32;8896;-71
2021/01/09 07:21:21;;;;;;;;;122.50;97.25;;;;;4.41;77.92;101072.50;4433924;32;8904;-71
2021/01/09 07:24:17;;;;;;;;;140.25;112.50;;;;;4.43;77.64;101051.13;4426494;32;8926;-70
2021/01/09 07:27:17;;;;;;;;;119.00;100.25;;;;;4.42;78.16;101057.69;4432214;32;8911;-71
2021/01/09 07:30:23;;;;;;;;;103.00;80.33;;;;;4.13;78.75;101063.00;4417435;32;9009;-71
2021/01/09 07:33:26;;;;;;;;;95.33;73.00;;;;;4.28;78.10;101078.56;4431991;32;8903;-72
2021/01/09 07:36:27;;;;;;;;;93.67;71.67;;;;;4.08;79.19;101101.37;4425946;32;8922;-71
2021/01/09 07:39:24;;;;;;;;;100.67;77.67;;;;;4.47;78.20;101099.59;4416982;32;8902;-70
2021/01/09 07:42:30;;;;;;;;;101.00;75.33;;;;;4.48;78.22;101105.88;4417074;32;8914;-71
2021/01/09 07:45:31;;;;;;;;;107.00;82.67;;;;;4.37;78.51;101098.78;4420255;32;9014;-71
2021/01/09 07:48:34;;;;;;;;;151.00;110.25;;;;;4.33;78.82;101106.75;4426108;32;9616;-72
2021/01/09 07:51:03;;;;;;;;;191.75;131.50;;;;;4.50;78.25;101097.38;4419055;32;9011;-71
2021/01/09 07:53:59;;;;;;;;;182.00;128.75;;;;;4.46;78.30;101099.88;4419736;32;8964;-71
2021/01/09 07:56:55;;;;;;;;;149.25;123.50;;;;;4.55;78.37;101109.16;4417902;32;8933;-71
2021/01/09 07:59:53;;;;;;;;;143.75;111.75;;;;;4.66;77.95;101113.47;4420028;32;9570;-71
2021/01/09 08:02:52;;;;;;;;;134.25;113.25;;;;;4.74;77.86;101131.25;4422427;32;9041;-71
2021/01/09 08:05:47;;;;;;;;;126.33;98.67;;;;;4.81;77.90;101129.00;4420528;32;9526;-71
2021/01/09 08:08:43;;;;;;;;;113.25;103.00;;;;;4.60;77.90;101128.31;4422106;32;8898;-71
2021/01/09 08:11:46;;;;;;;;;129.75;105.75;;;;;4.89;77.62;101133.91;4422645;32;8995;-71
2021/01/09 08:14:41;;;;;;;;;116.33;101.67;;;;;4.85;77.55;101143.81;4433574;32;9060;-70
2021/01/09 08:17:24;;;;;;;;;119.33;101.00;;;;;4.79;77.94;101135.88;4427932;32;8902;-70
2021/01/09 08:20:21;;;;;;;;;122.67;105.00;;;;;4.82;77.43;101111.47;4426598;32;8886;-71
2021/01/09 08:23:16;;;;;;;;;129.25;109.00;;;;;4.83;77.42;101115.88;4421412;32;8906;-70
2021/01/09 08:26:14;;;;;;;;;128.00;98.67;;;;;4.88;77.43;101129.53;4420953;32;8918;-71
2021/01/09 08:29:10;;;;;;;;;99.67;74.67;;;;;4.87;77.58;101135.31;4420220;32;8983;-72
2021/01/09 08:32:12;;;;;;;;;100.00;75.67;;;;;4.72;77.14;101100.56;4422724;32;8941;-72
2021/01/09 08:35:10;;;;;;;;;91.67;71.67;;;;;4.98;77.10;101093.88;4418869;32;9022;-72
2021/01/09 08:38:06;;;;;;;;;88.33;67.33;;;;;5.00;76.79;101119.06;4426549;32;8986;-72
2021/01/09 08:41:03;;;;;;;;;103.33;84.33;;;;;4.62;77.17;101126.09;4419919;32;8910;-72
2021/01/09 08:44:13;;;;;;;;;99.00;77.67;;;;;5.00;76.59;101126.47;4419428;32;8918;-73
2021/01/09 08:46:42;;;;;;;;;101.67;83.00;;;;;4.92;76.96;101105.13;4429086;32;8887;-71
2021/01/09 08:49:26;;;;;;;;;97.67;78.33;;;;;5.07;76.90;101110.53;4431104;32;8894;-71
2021/01/09 08:52:05;;;;;;;;;65.33;52.33;;;;;5.01;76.59;101109.72;4419673;32;8889;-71
2021/01/09 08:54:34;;;;;;;;;89.33;72.00;;;;;5.01;76.13;101114.41;4424447;32;8867;-71
2021/01/09 08:57:03;;;;;;;;;88.67;68.33;;;;;4.95;76.42;101115.53;4428848;32;8861;-70
2021/01/09 08:59:33;;;;;;;;;103.33;88.00;;;;;4.74;76.61;101120.28;4422747;32;8901;-71
2021/01/09 09:02:06;;;;;;;;;96.67;77.67;;;;;4.89;76.53;101113.91;4436105;32;8875;-71
2021/01/09 09:04:35;;;;;;;;;102.33;84.33;;;;;5.01;76.34;101096.03;4432923;32;8886;-74
2021/01/09 09:07:06;;;;;;;;;98.33;74.00;;;;;5.00;76.78;101112.75;4435402;32;8870;-72
2021/01/09 09:09:39;;;;;;;;;101.67;81.67;;;;;4.88;76.77;101115.00;4435267;32;8890;-71
2021/01/09 09:12:10;;;;;;;;;93.00;72.33;;;;;4.99;76.46;101106.47;4420502;32;8873;-72
2021/01/09 09:15:10;;;;;;;;;88.00;67.00;;;;;4.95;76.80;101110.03;4425362;32;8933;-72
2021/01/09 09:17:51;;;;;;;;;100.33;81.00;;;;;5.14;76.05;101119.25;4424804;32;8944;-72
2021/01/09 09:20:50;;;;;;;;;93.67;73.67;;;;;5.14;76.00;101130.22;4429435;32;8900;-71
2021/01/09 09:23:24;;;;;;;;;96.00;73.33;;;;;5.38;75.35;101121.28;4426994;32;8890;-72
2021/01/09 09:26:12;;;;;;;;;98.67;75.67;;;;;5.22;74.98;101124.13;4428153;32;8889;-71
2021/01/09 09:29:08;;;;;;;;;94.33;73.00;;;;;5.10;75.46;101125.59;4428428;32;9665;-71
2021/01/09 09:31:42;;;;;;;;;88.33;69.00;;;;;5.04;75.70;101124.78;4427539;32;8905;-70
2021/01/09 09:34:15;;;;;;;;;88.33;72.33;;;;;5.17;75.19;101131.56;4421361;32;8960;-71
2021/01/09 09:36:52;;;;;;;;;81.00;65.33;;;;;5.22;75.08;101115.91;4426665;32;8862;-71
2021/01/09 09:39:34;;;;;;;;;74.33;61.33;;;;;5.01;75.60;101109.72;4425715;32;8976;-71
2021/01/09 09:42:03;;;;;;;;;61.25;51.25;;;;;5.13;75.62;101116.78;4423909;32;9001;-71
2021/01/09 09:44:43;;;;;;;;;71.00;59.33;;;;;5.03;74.44;101104.78;4423884;32;12337;-72
2021/01/09 09:47:26;;;;;;;;;73.67;58.00;;;;;5.20;74.75;101104.37;4424679;32;12922;-72
2021/01/09 09:50:23;;;;;;;;;62.25;51.25;;;;;5.46;74.28;101112.44;4426782;32;12348;-72
2021/01/09 09:53:13;;;;;;;;;65.75;53.25;;;;;5.42;74.56;101111.37;4425027;32;12480;-73
2021/01/09 09:55:40;;;;;;;;;60.50;51.75;;;;;5.57;74.03;101108.50;4430632;32;12341;-72
2021/01/09 09:58:37;;;;;;;;;53.50;47.25;;;;;5.69;72.92;101108.97;4410959;32;12355;-71
2021/01/09 10:01:20;;;;;;;;;64.25;52.00;;;;;5.81;72.46;101117.63;4413612;32;12352;-71
2021/01/09 10:03:49;;;;;;;;;59.75;50.25;;;;;5.80;72.72;101123.41;4420148;32;12358;-72
2021/01/09 10:06:45;;;;;;;;;62.00;51.50;;;;;5.79;71.32;101122.59;4417153;32;13102;-70
2021/01/09 10:09:41;;;;;;;;;65.00;54.25;;;;;5.86;71.16;101128.56;4409836;32;12328;-71
2021/01/09 10:12:37;;;;;;;;;75.00;60.33;;;;;5.63;70.71;101112.84;4399125;32;12373;-71
2021/01/09 10:15:13;;;;;;;;;84.67;68.00;;;;;5.45;72.16;101119.03;4409614;32;8944;-71
2021/01/09 10:18:08;;;;;;;;;91.00;72.00;;;;;5.28;71.07;101116.69;4410517;32;8893;-71
2021/01/09 10:21:04;;;;;;;;;90.00;68.67;;;;;5.62;71.33;101126.88;4406956;32;8967;-73
2021/01/09 10:24:00;;;;;;;;;82.67;67.00;;;;;5.64;71.40;101127.38;4415619;32;8897;-71
2021/01/09 10:26:32;;;;;;;;;84.67;64.33;;;;;5.74;71.24;101135.53;4413839;32;8889;-71
2021/01/09 10:29:28;;;;;;;;;85.00;67.67;;;;;5.51;70.35;101139.81;4408133;32;8934;-72
2021/01/09 10:32:27;;;;;;;;;79.00;62.67;;;;;5.61;70.61;101139.75;4405383;32;8965;-71
2021/01/09 10:35:13;;;;;;;;;79.00;63.33;;;;;5.24;71.42;101143.88;4407036;32;8926;-72
2021/01/09 10:37:42;;;;;;;;;83.00;65.00;;;;;5.14;70.44;101119.25;4417379;32;8902;-71
2021/01/09 10:40:10;;;;;;;;;80.33;65.00;;;;;5.10;70.63;101112.69;4417277;32;8961;-71
2021/01/09 10:43:00;;;;;;;;;91.67;67.67;;;;;5.20;70.78;101114.53;4403630;32;8915;-71
2021/01/09 10:45:27;;;;;;;;;93.33;67.67;;;;;5.22;71.40;101120.56;4396467;32;8938;-71
2021/01/09 10:47:54;;;;;;;;;78.67;63.67;;;;;5.02;71.50;101116.84;4411270;32;8909;-71
2021/01/09 10:50:22;;;;;;;;;77.33;62.33;;;;;5.32;70.83;101112.28;4411662;32;8880;-71
2021/01/09 10:52:52;;;;;;;;;72.33;60.00;;;;;5.20;71.12;101122.75;4408991;32;8917;-71
2021/01/09 10:55:20;;;;;;;;;72.33;60.00;;;;;5.29;69.85;101127.38;4409240;32;8947;-71
2021/01/09 10:58:05;;;;;;;;;88.00;72.00;;;;;5.39;69.81;101122.94;4408493;32;9023;-71
2021/01/09 11:00:32;;;;;;;;;73.00;56.67;;;;;5.23;69.85;101125.78;4423202;32;8919;-71
2021/01/09 11:03:28;;;;;;;;;68.67;53.67;;;;;5.16;69.98;101132.69;4420664;32;12378;-71
2021/01/09 11:06:05;;;;;;;;;76.67;62.00;;;;;5.33;70.40;101133.09;4422304;32;8893;-72
2021/01/09 11:08:33;;;;;;;;;60.75;51.25;;;;;5.43;70.60;101137.69;4422142;32;8909;-71
2021/01/09 11:11:28;;;;;;;;;70.67;56.67;;;;;5.13;69.81;101155.16;4424155;32;12499;-71
2021/01/09 11:13:56;;;;;;;;;63.67;50.33;;;;;5.26;69.14;101140.81;4420962;32;12448;-71
2021/01/09 11:16:24;;;;;;;;;75.33;62.00;;;;;5.09;68.70;101156.84;4433056;32;8910;-70
2021/01/09 11:18:54;;;;;;;;;71.00;58.00;;;;;5.01;69.45;101153.59;4433802;32;8883;-71
2021/01/09 11:21:25;;;;;;;;;68.33;57.33;;;;;5.09;69.77;101154.09;4432540;32;8898;-72
2021/01/09 11:23:52;;;;;;;;;74.00;60.00;;;;;5.24;69.09;101145.78;4430356;32;12408;-72
2021/01/09 11:26:23;;;;;;;;;79.67;63.33;;;;;5.45;68.35;101143.72;4418242;32;12475;-72
2021/01/09 11:29:21;;;;;;;;;70.00;57.33;;;;;5.63;69.03;101153.19;4416948;32;9615;-72
2021/01/09 11:32:17;;;;;;;;;62.00;50.67;;;;;5.54;68.12;101153.00;4427886;32;12429;-71
2021/01/09 11:34:50;;;;;;;;;70.33;58.33;;;;;5.29;69.09;101141.09;4421785;32;12442;-72
2021/01/09 11:37:45;;;;;;;;;73.00;59.33;;;;;5.29;68.97;101143.84;4434680;32;8887;-71
2021/01/09 11:40:28;;;;;;;;;69.00;55.67;;;;;5.60;68.50;101149.09;4436054;32;12351;-72
2021/01/09 11:43:24;;;;;;;;;65.00;53.00;;;;;5.80;68.14;101159.09;4436377;32;12438;-71
2021/01/09 11:46:26;;;;;;;;;69.33;56.33;;;;;5.27;66.86;101151.50;4436402;32;8908;-72
2021/01/09 11:49:22;;;;;;;;;75.33;55.00;;;;;5.10;67.77;101159.31;4436593;32;8972;-72
2021/01/09 11:52:17;;;;;;;;;76.67;62.33;;;;;5.47;67.81;101158.78;4432115;32;8941;-72
2021/01/09 11:54:45;;;;;;;;;71.67;54.67;;;;;5.36;67.82;101164.62;4437722;32;8899;-73
2021/01/09 11:57:14;;;;;;;;;73.00;59.67;;;;;5.67;67.35;101171.53;4436749;32;8853;-72
2021/01/09 11:59:41;;;;;;;;;84.33;64.33;;;;;5.58;67.32;101178.72;4428608;32;8873;-72
2021/01/09 12:02:38;;;;;;;;;74.33;61.67;;;;;5.60;67.36;101179.28;4429956;32;8960;-72
2021/01/09 12:05:09;;;;;;;;;68.00;55.75;;;;;5.83;67.78;101188.72;4437327;32;12320;-72
2021/01/09 12:07:37;;;;;;;;;71.75;57.50;;;;;5.77;67.81;101189.87;4426404;32;12647;-72
2021/01/09 12:10:09;;;;;;;;;50.00;42.75;;;;;5.97;67.83;101208.09;4428217;32;12390;-73
2021/01/09 12:12:52;;;;;;;;;43.75;40.50;;;;;5.69;67.50;101207.75;4428290;32;12446;-71
2021/01/09 12:15:40;;;;;;;;;52.00;46.00;;;;;5.94;67.10;101208.69;4423747;32;12385;-71
2021/01/09 12:18:07;;;;;;;;;43.75;42.25;;;;;5.87;66.98;101219.97;4423120;32;12366;-72
2021/01/09 12:21:03;;;;;;;;;38.25;35.25;;;;;5.99;67.40;101225.12;4420809;32;12326;-72
2021/01/09 12:23:31;;;;;;;;;36.50;34.50;;;;;5.86;67.20;101223.81;4420453;32;12324;-72
2021/01/09 12:26:27;;;;;;;;;32.50;32.50;;;;;5.86;66.62;101219.16;4425447;32;12522;-72
2021/01/09 12:29:09;;;;;;;;;32.50;31.25;;;;;5.68;66.70;101228.06;4422048;32;12353;-72
2021/01/09 12:32:05;;;;;;;;;32.50;30.75;;;;;5.74;66.45;101243.37;4427184;32;12463;-72
2021/01/09 12:34:33;;;;;;;;;33.00;32.75;;;;;5.79;65.98;101245.28;4426988;32;12373;-72
2021/01/09 12:37:29;;;;;;;;;40.00;38.25;;;;;5.57;66.61;101242.94;4430256;32;12443;-72
2021/01/09 12:39:56;;;;;;;;;39.75;39.75;;;;;5.48;66.81;101250.16;4428271;32;12432;-72
2021/01/09 12:42:28;;;;;;;;;37.75;36.00;;;;;5.59;66.02;101240.72;4426286;32;12407;-72
2021/01/09 12:45:14;;;;;;;;;39.25;38.50;;;;;5.67;66.58;101248.38;4426722;32;12333;-72
2021/01/09 12:48:09;;;;;;;;;44.25;40.00;;;;;5.78;66.31;101238.97;4424114;32;12455;-73
2021/01/09 12:50:57;;;;;;;;;36.25;34.25;;;;;5.79;66.67;101250.78;4426285;32;12429;-72
2021/01/09 12:53:24;;;;;;;;;38.75;37.50;;;;;5.66;66.51;101243.97;4431713;32;12344;-72
2021/01/09 12:55:51;;;;;;;;;36.25;35.50;;;;;5.55;66.95;101248.72;4436862;32;12347;-72
2021/01/09 12:58:47;;;;;;;;;40.00;38.50;;;;;5.90;66.54;101257.81;4433538;32;12345;-71
2021/01/09 13:01:31;;;;;;;;;28.00;26.50;;;;;5.96;66.51;101259.47;4435280;32;12322;-72
2021/01/09 13:04:26;;;;;;;;;36.00;34.50;;;;;5.67;64.36;101264.00;4436005;32;12443;-72
2021/01/09 13:07:23;;;;;;;;;32.25;30.75;;;;;5.50;63.25;101265.22;4435050;32;12335;-72